Time;durP1;ratioP1;P1;durP2;ratioP2;P2;SDS_P1;SDS_P2;PMS_P1;PMS_P2;Temp;Humidity;BMP_temperature;BMP_pressure;BME280_temperature;BME280_humidity;BME280_pressure;Samples;Min_cycle;Max_cycle;Signal;HPM_P1;HPM_P2
2022/05/17 00:00:35;;;;;;;11.50;5.85;;;19.00;99.90;;;;;;5069400;28;20028;-77
2022/05/17 00:03:29;;;;;;;9.68;5.95;;;19.00;99.90;;;;;;5055855;28;20074;-77
2022/05/17 00:09:08;;;;;;;7.60;5.63;;;19.00;99.90;;;;;;5013444;28;20036;-77
2022/05/17 00:24:50;;;;;;;7.82;5.63;;;18.80;99.90;;;;;;5033239;28;20037;-77
2022/05/17 00:27:19;;;;;;;7.55;5.90;;;18.80;99.90;;;;;;5079373;28;20074;-77
2022/05/17 00:29:45;;;;;;;7.25;5.88;;;18.80;99.90;;;;;;5094264;28;20097;-78
2022/05/17 00:32:22;;;;;;;11.93;5.57;;;18.70;99.90;;;;;;5093397;28;20020;-78
2022/05/17 00:34:51;;;;;;;8.10;5.50;;;18.80;99.90;;;;;;5095380;28;20040;-78
2022/05/17 00:37:17;;;;;;;6.85;5.25;;;18.70;99.90;;;;;;5092965;28;20126;-77
2022/05/17 00:39:54;;;;;;;11.40;6.25;;;18.80;99.90;;;;;;5093859;28;20024;-77
2022/05/17 00:42:32;;;;;;;11.32;6.10;;;18.80;99.90;;;;;;5092331;28;20032;-77
2022/05/17 00:44:58;;;;;;;9.40;6.70;;;18.70;99.90;;;;;;5094757;28;20089;-77
2022/05/17 00:47:36;;;;;;;12.68;7.28;;;18.50;99.90;;;;;;5094051;28;20023;-77
2022/05/17 00:50:20;;;;;;;10.73;5.90;;;18.50;99.90;;;;;;5093709;28;20080;-77
2022/05/17 00:52:53;;;;;;;9.55;7.05;;;18.50;99.90;;;;;;5093881;28;20358;-77
2022/05/17 00:55:41;;;;;;;10.48;7.07;;;18.40;99.90;;;;;;5092889;28;20125;-77
2022/05/17 00:58:30;;;;;;;10.85;6.88;;;18.40;99.90;;;;;;5094455;28;20107;-77
2022/05/17 01:01:08;;;;;;;8.05;6.32;;;18.30;99.90;;;;;;5093123;28;20032;-77
2022/05/17 01:03:56;;;;;;;13.70;7.82;;;18.40;99.90;;;;;;5093276;28;20039;-77
2022/05/17 01:06:23;;;;;;;11.85;7.13;;;18.40;99.90;;;;;;5093183;28;20052;-77
2022/05/17 01:08:49;;;;;;;29.38;7.88;;;18.50;99.90;;;;;;5093282;28;20541;-77
2022/05/17 01:11:16;;;;;;;9.77;5.68;;;18.40;99.90;;;;;;5093798;28;20028;-77
2022/05/17 01:16:27;;;;;;;11.50;6.35;;;18.50;99.90;;;;;;5093595;28;20504;-77
2022/05/17 01:18:53;;;;;;;11.93;7.10;;;18.50;99.90;;;;;;5093963;28;20028;-77
2022/05/17 01:21:20;;;;;;;8.82;6.70;;;18.40;99.90;;;;;;5092380;28;20032;-77
2022/05/17 01:23:46;;;;;;;7.90;6.10;;;18.50;99.90;;;;;;5094248;28;20035;-77
2022/05/17 01:26:18;;;;;;;8.25;5.65;;;18.40;99.90;;;;;;5093302;28;20028;-77
2022/05/17 01:28:44;;;;;;;11.90;6.25;;;18.40;99.90;;;;;;5092838;28;20039;-77
2022/05/17 01:31:10;;;;;;;11.68;7.20;;;18.50;99.90;;;;;;5093195;28;20440;-77
2022/05/17 01:33:38;;;;;;;8.57;6.05;;;18.50;99.90;;;;;;5092588;28;20032;-77
2022/05/17 01:36:07;;;;;;;14.63;6.43;;;18.50;99.90;;;;;;5092707;28;20576;-77
2022/05/17 01:38:37;;;;;;;8.77;6.35;;;18.50;99.90;;;;;;5092873;28;20024;-77
2022/05/17 01:41:04;;;;;;;12.88;6.40;;;18.40;99.90;;;;;;5092720;28;20028;-77
2022/05/17 01:43:41;;;;;;;8.25;6.57;;;18.40;99.90;;;;;;5091500;28;20048;-76
2022/05/17 01:46:20;;;;;;;10.52;7.68;;;18.40;99.90;;;;;;5093020;28;20028;-77
2022/05/17 01:49:01;;;;;;;13.73;6.75;;;18.30;99.90;;;;;;5093601;28;20020;-77
2022/05/17 01:51:27;;;;;;;9.88;6.57;;;18.30;99.90;;;;;;5091966;28;20080;-77
2022/05/17 01:54:02;;;;;;;9.27;6.35;;;18.30;99.90;;;;;;5091903;28;20458;-77
2022/05/17 01:56:31;;;;;;;10.63;6.57;;;18.20;99.90;;;;;;5091713;28;20028;-77
2022/05/17 01:58:57;;;;;;;12.57;6.25;;;18.20;99.90;;;;;;5092158;28;20031;-77
2022/05/17 02:01:26;;;;;;;7.18;5.93;;;18.30;99.90;;;;;;5092629;28;20024;-77
2022/05/17 02:04:06;;;;;;;8.43;5.95;;;18.30;99.90;;;;;;5093548;28;20038;-77
2022/05/17 02:06:32;;;;;;;9.98;6.32;;;18.30;99.90;;;;;;5092299;28;20085;-77
2022/05/17 02:08:59;;;;;;;16.52;7.38;;;18.30;99.90;;;;;;5092108;28;20059;-77
2022/05/17 02:11:27;;;;;;;10.07;6.18;;;18.30;99.90;;;;;;5091228;28;20032;-77
2022/05/17 02:13:53;;;;;;;13.13;6.75;;;18.30;99.90;;;;;;5091949;28;20042;-77
2022/05/17 02:16:25;;;;;;;11.15;6.78;;;18.30;99.90;;;;;;5091111;28;20117;-77
2022/05/17 02:19:01;;;;;;;11.90;7.78;;;18.30;99.90;;;;;;5092287;28;20024;-77
2022/05/17 02:21:30;;;;;;;10.73;6.97;;;18.30;99.90;;;;;;5092396;28;20253;-77
2022/05/17 02:24:02;;;;;;;7.45;6.20;;;18.10;99.90;;;;;;5091126;28;20035;-77
2022/05/17 02:26:41;;;;;;;10.70;7.35;;;18.20;99.90;;;;;;5091040;28;20031;-77
2022/05/17 02:29:21;;;;;;;9.70;7.30;;;18.20;99.90;;;;;;5092716;28;20578;-78
2022/05/17 02:31:53;;;;;;;8.57;6.85;;;18.10;99.90;;;;;;5091467;28;20067;-77
2022/05/17 02:34:55;;;;;;;8.30;6.68;;;18.10;99.90;;;;;;5090764;28;20078;-77
2022/05/17 02:37:37;;;;;;;;;;;;;;;;;;;;;
2022/05/17 02:40:10;;;;;;;10.10;6.25;;;18.10;99.90;;;;;;5080338;28;20040;-78
2022/05/17 02:42:43;;;;;;;12.65;7.35;;;18.00;99.90;;;;;;5090776;28;20032;-78
2022/05/17 02:45:11;;;;;;;13.18;8.32;;;17.90;99.90;;;;;;5092825;28;20473;-77
2022/05/17 02:47:49;;;;;;;9.38;7.50;;;17.70;99.90;;;;;;5070168;28;20036;-77
2022/05/17 02:50:19;;;;;;;10.77;7.97;;;17.60;99.90;;;;;;5052759;28;20036;-77
2022/05/17 02:52:45;;;;;;;11.13;7.25;;;17.70;99.90;;;;;;5053458;28;20036;-79
2022/05/17 02:55:15;;;;;;;8.98;7.22;;;17.70;99.90;;;;;;5069240;28;20056;-77
2022/05/17 02:57:42;;;;;;;11.98;7.05;;;17.80;99.90;;;;;;5070162;28;20028;-78
2022/05/17 03:00:13;;;;;;;7.72;6.85;;;17.80;99.90;;;;;;5070138;28;20032;-77
2022/05/17 03:02:45;;;;;;;13.20;8.82;;;17.90;99.90;;;;;;5053562;28;20028;-78
2022/05/17 03:05:15;;;;;;;8.68;7.20;;;17.80;99.90;;;;;;5052554;28;20047;-77
2022/05/17 03:07:45;;;;;;;10.97;6.80;;;17.80;99.90;;;;;;5053313;28;20073;-77
2022/05/17 03:10:14;;;;;;;9.07;6.75;;;17.90;99.90;;;;;;5052408;28;20497;-77
2022/05/17 03:12:40;;;;;;;12.98;6.95;;;17.90;99.90;;;;;;5053148;28;20123;-78
2022/05/17 03:15:13;;;;;;;11.02;7.80;;;17.90;99.90;;;;;;5053075;28;20044;-78
2022/05/17 03:17:42;;;;;;;12.30;7.70;;;17.80;99.90;;;;;;5055737;28;20073;-77
2022/05/17 03:20:10;;;;;;;12.15;7.38;;;17.80;99.90;;;;;;5092258;28;20051;-77
2022/05/17 03:22:36;;;;;;;13.45;7.80;;;17.80;99.90;;;;;;5091140;28;20024;-78
2022/05/17 03:25:03;;;;;;;11.45;7.20;;;17.80;99.90;;;;;;5092141;28;20031;-77
2022/05/17 03:27:32;;;;;;;11.20;6.65;;;17.70;99.90;;;;;;5090626;28;20024;-77
2022/05/17 03:29:59;;;;;;;11.73;7.32;;;17.70;99.90;;;;;;5091125;28;20545;-77
2022/05/17 03:32:25;;;;;;;10.95;7.00;;;17.80;99.90;;;;;;5090287;28;20046;-78
2022/05/17 03:34:51;;;;;;;9.40;6.28;;;17.90;99.90;;;;;;5090630;28;20051;-77
2022/05/17 03:37:17;;;;;;;10.88;6.40;;;17.90;99.90;;;;;;5093164;28;20028;-77
2022/05/17 03:39:46;;;;;;;9.90;7.30;;;17.90;99.90;;;;;;5094714;28;20066;-78
2022/05/17 03:42:15;;;;;;;11.40;6.72;;;17.70;99.90;;;;;;5094987;28;20430;-77
2022/05/17 03:44:47;;;;;;;12.55;8.23;;;17.80;99.90;;;;;;5095908;28;20028;-77
2022/05/17 03:47:13;;;;;;;10.63;7.65;;;17.70;99.90;;;;;;5094456;28;20060;-78
2022/05/17 03:50:02;;;;;;;10.07;7.78;;;17.60;99.90;;;;;;5094665;28;20526;-76
2022/05/17 03:52:41;;;;;;;13.50;4.95;;;17.60;99.90;;;;;;5094218;28;20025;-82
2022/05/17 03:55:21;;;;;;;13.40;6.72;;;18.70;99.90;;;;;;5094187;28;20385;-81
2022/05/17 03:58:16;;;;;;;6.93;5.68;;;18.90;99.90;;;;;;5094777;28;20484;-80
2022/05/17 04:00:42;;;;;;;10.15;6.57;;;19.20;99.90;;;;;;5094664;28;20035;-78
2022/05/17 04:03:11;;;;;;;9.35;5.25;;;19.30;99.90;;;;;;5094233;28;20031;-80
2022/05/17 04:05:40;;;;;;;10.35;5.18;;;19.50;99.90;;;;;;5093490;28;20036;-81
2022/05/17 04:09:03;;;;;;;;;;;;;;;;;;;;;
2022/05/17 04:11:40;;;;;;;8.77;6.47;;;19.40;99.90;;;;;;5092847;28;20484;-78
2022/05/17 04:14:06;;;;;;;12.77;6.10;;;18.90;99.90;;;;;;5056295;28;20449;-76
2022/05/17 04:16:42;;;;;;;13.48;7.80;;;18.60;99.90;;;;;;5055588;28;20031;-77
2022/05/17 04:19:29;;;;;;;10.43;7.00;;;18.10;99.90;;;;;;5064480;28;20067;-77
2022/05/17 04:22:09;;;;;;;13.63;8.18;;;17.70;99.90;;;;;;5029041;28;20033;-77
2022/05/17 04:24:56;;;;;;;11.75;8.95;;;17.60;99.90;;;;;;5020199;28;20029;-77
2022/05/17 04:27:53;;;;;;;;;;;;;;;;;;;;;
2022/05/17 04:33:29;;;;;;;19.50;9.68;;;17.40;99.90;;;;;;4969962;28;20043;-75
2022/05/17 04:36:00;;;;;;;11.85;8.85;;;17.50;99.90;;;;;;5011843;28;20131;-77
2022/05/17 04:38:31;;;;;;;;;;;17.60;99.90;;;;;;5022533;28;20036;-75
2022/05/17 04:41:17;;;;;;;9.77;8.67;;;17.80;99.90;;;;;;5028716;28;19963;-77
2022/05/17 04:44:03;;;;;;;12.25;9.18;;;17.90;99.90;;;;;;5051256;28;20267;-76
2022/05/17 04:46:54;;;;;;;13.15;8.68;;;18.00;99.90;;;;;;5078244;28;20028;-76
2022/05/17 04:49:20;;;;;;;10.65;8.57;;;18.10;99.90;;;;;;5082400;28;20058;-76
2022/05/17 04:51:55;;;;;;;12.07;7.75;;;18.20;99.90;;;;;;5082668;28;20051;-75
2022/05/17 04:54:27;;;;;;;13.52;9.68;;;18.30;99.90;;;;;;5085184;28;20043;-77
2022/05/17 04:57:39;;;;;;;11.75;8.82;;;18.30;99.90;;;;;;5090879;28;20050;-77
2022/05/17 05:00:15;;;;;;;15.70;9.95;;;18.20;99.90;;;;;;5087451;28;20038;-77
2022/05/17 05:02:44;;;;;;;17.35;9.70;;;18.10;99.90;;;;;;5084411;28;20104;-76
2022/05/17 05:05:17;;;;;;;14.20;9.73;;;17.90;99.90;;;;;;5092204;28;20020;-78
2022/05/17 05:08:47;;;;;;;15.93;9.98;;;17.90;99.90;;;;;;5102977;28;20036;-78
2022/05/17 05:10:54;;;;;;;13.35;8.13;;;17.90;99.90;;;;;;5106087;28;20060;-78
2022/05/17 05:13:25;;;;;;;13.27;9.40;;;18.10;99.90;;;;;;5108040;28;20024;-77
2022/05/17 05:15:52;;;;;;;13.55;9.57;;;18.10;99.90;;;;;;5089413;28;20131;-77
2022/05/17 05:18:32;;;;;;;12.20;9.10;;;18.10;99.90;;;;;;5087064;28;20093;-76
2022/05/17 05:24:15;;;;;;;17.33;10.65;;;18.40;99.90;;;;;;5053459;28;20050;-76
2022/05/17 05:26:53;;;;;;;;;;;18.30;99.90;;;;;;5087362;28;20032;-79
2022/05/17 05:29:24;;;;;;;18.65;10.48;;;18.30;99.90;;;;;;5084251;28;19911;-77
2022/05/17 05:31:58;;;;;;;;;;;18.20;99.90;;;;;;5070358;28;20353;-77
2022/05/17 05:34:30;;;;;;;12.30;8.40;;;18.30;99.90;;;;;;5074725;28;19916;-77
2022/05/17 05:36:59;;;;;;;14.05;9.00;;;18.50;99.90;;;;;;5084267;28;20105;-76
2022/05/17 05:39:25;;;;;;;17.40;10.93;;;18.50;99.90;;;;;;5076751;28;20073;-76
2022/05/17 05:41:52;;;;;;;23.77;10.20;;;18.70;99.90;;;;;;5081925;28;20027;-77
2022/05/17 05:44:25;;;;;;;17.60;12.93;;;18.70;99.90;;;;;;5105090;28;20195;-76
2022/05/17 05:47:03;;;;;;;17.27;11.77;;;18.30;99.90;;;;;;5106895;28;20061;-76
2022/05/17 05:49:29;;;;;;;20.48;11.38;;;18.00;99.90;;;;;;5105912;28;20314;-77
2022/05/17 05:51:58;;;;;;;14.65;10.52;;;18.10;99.90;;;;;;5108391;28;20506;-76
2022/05/17 05:54:27;;;;;;;15.25;10.30;;;18.30;99.90;;;;;;5106532;28;20093;-76
2022/05/17 05:56:55;;;;;;;13.32;10.98;;;18.40;99.90;;;;;;5109005;28;20508;-76
2022/05/17 05:59:21;;;;;;;18.13;10.20;;;18.60;99.90;;;;;;5106322;28;20652;-76
2022/05/17 06:01:50;;;;;;;14.63;11.93;;;18.50;99.90;;;;;;5107538;28;20036;-77
2022/05/17 06:04:18;;;;;;;21.98;11.90;;;18.40;99.90;;;;;;5106977;28;20510;-76
2022/05/17 06:06:44;;;;;;;12.85;11.23;;;18.30;99.90;;;;;;5101305;28;20473;-76
2022/05/17 06:09:10;;;;;;;17.73;12.20;;;18.50;99.90;;;;;;5075312;28;20074;-76
2022/05/17 06:11:36;;;;;;;13.43;11.30;;;18.40;99.90;;;;;;5088270;28;20076;-76
2022/05/17 06:14:04;;;;;;;14.07;11.02;;;18.50;99.90;;;;;;5100517;28;20119;-77
2022/05/17 06:16:30;;;;;;;17.13;13.25;;;18.60;99.90;;;;;;5070870;28;20701;-78
2022/05/17 06:18:56;;;;;;;17.63;13.18;;;18.50;99.90;;;;;;5068001;28;20107;-77
2022/05/17 06:21:22;;;;;;;14.30;12.25;;;18.50;99.90;;;;;;5084225;28;20070;-77
2022/05/17 06:23:48;;;;;;;22.77;12.73;;;18.60;99.90;;;;;;5069905;28;20069;-75
2022/05/17 06:26:13;;;;;;;19.70;11.43;;;18.80;99.90;;;;;;5086553;28;20055;-74
2022/05/17 06:28:39;;;;;;;14.98;10.88;;;19.30;99.90;;;;;;5090084;28;20704;-76
2022/05/17 06:31:05;;;;;;;15.13;9.98;;;19.40;99.90;;;;;;5094279;28;20147;-74
2022/05/17 06:33:31;;;;;;;19.38;9.90;;;19.70;99.90;;;;;;5092314;28;20114;-77
2022/05/17 06:35:57;;;;;;;17.85;11.73;;;20.10;99.90;;;;;;5096120;28;20043;-76
2022/05/17 06:38:23;;;;;;;16.02;10.88;;;19.90;99.90;;;;;;5095944;28;20032;-77
2022/05/17 06:40:49;;;;;;;14.05;10.63;;;19.90;99.90;;;;;;5089036;28;20578;-77
2022/05/17 06:43:15;;;;;;;18.20;10.30;;;20.00;99.90;;;;;;5091836;28;20465;-78
2022/05/17 06:45:41;;;;;;;13.73;9.77;;;19.90;99.90;;;;;;5086035;28;20024;-78
2022/05/17 06:48:07;;;;;;;16.25;10.18;;;20.00;99.90;;;;;;5083177;28;20020;-74
2022/05/17 06:50:33;;;;;;;18.60;11.70;;;20.20;99.90;;;;;;5089819;28;20116;-80
2022/05/17 06:52:59;;;;;;;14.18;9.82;;;20.10;99.90;;;;;;5107770;28;20056;-83
2022/05/17 06:55:25;;;;;;;14.68;10.50;;;20.50;99.90;;;;;;5092904;28;20040;-83
2022/05/17 06:57:51;;;;;;;12.27;10.13;;;20.60;99.90;;;;;;5079742;28;20031;-75
2022/05/17 07:00:19;;;;;;;18.83;10.45;;;20.70;99.90;;;;;;5111252;28;20019;-75
2022/05/17 07:02:45;;;;;;;14.68;9.85;;;20.60;99.90;;;;;;5104282;28;20062;-76
2022/05/17 07:05:11;;;;;;;12.85;9.05;;;20.60;99.90;;;;;;5085135;28;20028;-76
2022/05/17 07:07:37;;;;;;;14.98;10.35;;;20.70;99.90;;;;;;5090955;28;20082;-75
2022/05/17 07:15:33;;;;;;;14.07;8.63;;;20.60;99.90;;;;;;5116125;28;20129;-75
2022/05/17 07:18:01;;;;;;;15.80;7.97;;;21.00;99.90;;;;;;5116616;28;20105;-76
2022/05/17 07:20:28;;;;;;;13.30;8.25;;;20.80;99.90;;;;;;5114758;28;20024;-77
2022/05/17 07:22:54;;;;;;;13.20;6.47;;;21.10;99.90;;;;;;5106140;28;20028;-76
2022/05/17 07:25:20;;;;;;;9.20;6.05;;;21.60;99.90;;;;;;5096349;28;20016;-73
2022/05/17 07:27:46;;;;;;;12.07;7.20;;;21.90;99.90;;;;;;5088928;28;20468;-73
2022/05/17 07:30:12;;;;;;;13.20;8.18;;;22.00;99.90;;;;;;5092690;28;20024;-77
2022/05/17 07:32:39;;;;;;;8.85;6.85;;;21.70;99.90;;;;;;5077673;28;20057;-76
2022/05/17 07:35:07;;;;;;;13.07;7.22;;;21.70;99.90;;;;;;5084223;28;20180;-75
2022/05/17 07:37:34;;;;;;;11.40;6.72;;;21.80;99.90;;;;;;5114244;28;20530;-78
2022/05/17 07:39:59;;;;;;;10.25;5.93;;;21.60;99.90;;;;;;5115533;28;20027;-81
2022/05/17 07:42:26;;;;;;;12.95;6.63;;;21.80;99.90;;;;;;5116261;28;20026;-79
2022/05/17 07:44:52;;;;;;;10.65;6.18;;;22.10;99.90;;;;;;5116960;28;20031;-82
2022/05/17 07:47:18;;;;;;;10.57;6.40;;;22.30;99.90;;;;;;5099175;28;20469;-80
2022/05/17 07:49:44;;;;;;;10.43;6.32;;;22.40;99.90;;;;;;5115020;28;20041;-82
2022/05/17 07:52:10;;;;;;;11.38;5.53;;;22.20;99.90;;;;;;5106763;28;20035;-82
2022/05/17 07:54:41;;;;;;;12.88;6.20;;;22.40;99.90;;;;;;5113625;28;20048;-83
2022/05/17 07:57:07;;;;;;;13.27;5.63;;;22.70;99.90;;;;;;5114635;28;20440;-80
2022/05/17 07:59:34;;;;;;;10.25;5.35;;;22.80;99.90;;;;;;5115928;28;20027;-83
2022/05/17 08:01:59;;;;;;;7.63;5.18;;;22.90;99.90;;;;;;5114810;28;20027;-84
2022/05/17 08:04:28;;;;;;;16.08;5.53;;;23.00;99.30;;;;;;5115497;28;20554;-74
2022/05/17 08:06:56;;;;;;;12.23;6.85;;;23.10;99.00;;;;;;5114523;28;20400;-83
2022/05/17 08:09:23;;;;;;;13.88;5.90;;;23.40;98.40;;;;;;5115127;28;20027;-84
2022/05/17 08:11:53;;;;;;;17.98;6.43;;;23.80;97.80;;;;;;5113874;28;20023;-84
2022/05/17 08:14:19;;;;;;;23.88;5.43;;;24.00;97.10;;;;;;5116370;28;20031;-83
2022/05/17 08:16:45;;;;;;;10.63;4.70;;;24.10;96.90;;;;;;5114842;28;20434;-84
2022/05/17 08:19:12;;;;;;;11.35;5.18;;;24.10;97.30;;;;;;5114984;28;20101;-84
2022/05/17 08:21:38;;;;;;;10.48;5.05;;;24.10;96.00;;;;;;5114774;27;20047;-84
2022/05/17 08:24:05;;;;;;;8.75;4.80;;;23.90;95.60;;;;;;5114682;28;20054;-84
2022/05/17 08:29:15;;;;;;;8.50;5.00;;;24.00;95.80;;;;;;5116104;28;20081;-84
2022/05/17 08:33:14;;;;;;;11.07;4.82;;;23.80;95.60;;;;;;5116434;28;20019;-84
2022/05/17 08:34:29;;;;;;;6.28;3.70;;;24.10;95.20;;;;;;5114813;28;20059;-83
2022/05/17 08:36:54;;;;;;;11.30;4.60;;;24.40;95.30;;;;;;5114647;28;20068;-85
2022/05/17 08:39:20;;;;;;;10.50;5.00;;;24.60;95.30;;;;;;5114879;28;20119;-84
2022/05/17 08:41:52;;;;;;;12.45;4.63;;;24.90;95.40;;;;;;5115649;28;20032;-84
2022/05/17 08:44:39;;;;;;;12.48;6.53;;;25.30;95.20;;;;;;5116852;28;20028;-83
2022/05/17 08:47:11;;;;;;;9.65;4.47;;;25.60;94.60;;;;;;5117974;28;20028;-84
2022/05/17 08:49:55;;;;;;;7.78;4.57;;;26.00;94.50;;;;;;5117293;28;20035;-83
2022/05/17 08:52:23;;;;;;;9.38;5.57;;;26.30;93.90;;;;;;5115428;28;20027;-84
2022/05/17 08:55:01;;;;;;;14.32;4.63;;;25.70;93.70;;;;;;5114432;28;20047;-85
2022/05/17 08:57:36;;;;;;;9.60;5.28;;;25.70;93.70;;;;;;5114199;28;20023;-84
2022/05/17 09:00:35;;;;;;;10.65;5.45;;;24.70;94.10;;;;;;5114072;28;20047;-84
2022/05/17 09:03:23;;;;;;;11.68;4.97;;;24.60;95.10;;;;;;5115937;28;20072;-84
2022/05/17 09:06:12;;;;;;;16.75;6.30;;;24.70;95.10;;;;;;5083685;28;20621;-83
2022/05/17 09:09:06;;;;;;;11.48;5.00;;;24.40;94.70;;;;;;5115597;28;20119;-84
2022/05/17 09:11:59;;;;;;;8.15;3.72;;;24.80;94.30;;;;;;5116117;28;20042;-84
2022/05/17 09:14:33;;;;;;;8.98;4.75;;;25.50;94.50;;;;;;5116935;28;20039;-84
2022/05/17 09:17:06;;;;;;;12.13;5.68;;;26.00;94.00;;;;;;5116857;28;20038;-84
2022/05/17 09:19:32;;;;;;;7.07;4.47;;;25.90;93.00;;;;;;5115897;28;20476;-83
2022/05/17 09:22:02;;;;;;;9.50;4.85;;;26.00;93.40;;;;;;5116783;28;20058;-83
2022/05/17 09:24:38;;;;;;;16.10;5.55;;;25.80;92.70;;;;;;5098527;28;20034;-84
2022/05/17 09:27:10;;;;;;;6.15;4.50;;;25.80;93.30;;;;;;5113791;28;20019;-83
2022/05/17 09:29:45;;;;;;;13.32;5.03;;;25.70;93.20;;;;;;5114469;28;20024;-83
2022/05/17 09:32:12;;;;;;;11.18;4.90;;;25.60;92.60;;;;;;5114099;28;20120;-84
2022/05/17 09:34:45;;;;;;;10.10;4.35;;;26.00;92.70;;;;;;5110240;28;20047;-80
2022/05/17 09:37:19;;;;;;;12.35;4.38;;;26.20;92.70;;;;;;5113929;28;20379;-81
2022/05/17 09:39:52;;;;;;;9.07;4.40;;;26.30;91.60;;;;;;5112535;28;20031;-79
2022/05/17 09:42:34;;;;;;;9.60;4.82;;;26.30;92.10;;;;;;5111338;28;20019;-80
2022/05/17 09:45:07;;;;;;;7.38;4.15;;;26.00;91.80;;;;;;5113188;28;20034;-79
2022/05/17 09:47:54;;;;;;;9.13;4.32;;;25.90;92.30;;;;;;5110973;28;20035;-78
2022/05/17 09:53:18;;;;;;;6.47;3.95;;;26.00;92.90;;;;;;5112181;28;20081;-79
2022/05/17 09:55:49;;;;;;;10.18;4.20;;;26.10;92.60;;;;;;5112611;28;20027;-78
2022/05/17 09:58:42;;;;;;;8.93;4.15;;;25.60;92.30;;;;;;5111648;28;20027;-79
2022/05/17 10:01:19;;;;;;;4.45;3.30;;;26.10;92.00;;;;;;5109697;28;20337;-81
2022/05/17 10:04:00;;;;;;;8.35;3.78;;;26.80;91.30;;;;;;5110668;28;20091;-81
2022/05/17 10:06:32;;;;;;;10.05;4.68;;;27.00;90.20;;;;;;5111733;28;20028;-81
2022/05/17 10:09:00;;;;;;;7.70;4.63;;;26.90;90.10;;;;;;5112948;28;20023;-81
2022/05/17 10:11:27;;;;;;;7.22;3.55;;;27.00;90.20;;;;;;5112377;28;20122;-81
2022/05/17 10:14:15;;;;;;;10.50;3.53;;;27.50;90.30;;;;;;5117418;28;20045;-81
2022/05/17 10:16:41;;;;;;;10.52;4.25;;;27.80;88.80;;;;;;5120240;28;20020;-81
2022/05/17 10:19:27;;;;;;;15.65;4.32;;;27.80;89.30;;;;;;5117815;28;20027;-79
2022/05/17 10:21:59;;;;;;;5.80;3.25;;;27.70;88.30;;;;;;5114595;28;20312;-80
2022/05/17 10:25:07;;;;;;;8.90;3.45;;;27.20;89.90;;;;;;5115022;28;20194;-81
2022/05/17 10:27:44;;;;;;;10.18;3.58;;;27.60;89.50;;;;;;5118162;28;20043;-81
2022/05/17 10:30:35;;;;;;;9.48;3.67;;;27.80;88.60;;;;;;5119732;28;20055;-80
2022/05/17 10:33:06;;;;;;;10.70;4.45;;;27.70;89.30;;;;;;5089174;28;20031;-79
2022/05/17 10:35:34;;;;;;;14.60;4.13;;;27.40;88.40;;;;;;5114207;28;20032;-79
2022/05/17 10:38:00;;;;;;;6.82;3.75;;;27.70;89.30;;;;;;5114129;28;20031;-80
2022/05/17 10:40:43;;;;;;;13.45;3.90;;;28.30;87.60;;;;;;5112230;28;20164;-79
2022/05/17 10:43:14;;;;;;;7.13;2.92;;;28.90;86.90;;;;;;5113417;28;20034;-80
2022/05/17 10:45:40;;;;;;;9.20;3.63;;;29.30;87.00;;;;;;5112884;28;20038;-79
2022/05/17 10:48:26;;;;;;;8.60;3.28;;;29.30;85.80;;;;;;5113370;28;20020;-80
2022/05/17 10:50:55;;;;;;;8.07;3.75;;;28.70;84.50;;;;;;5112247;28;20051;-80
2022/05/17 10:53:35;;;;;;;6.55;3.42;;;28.40;85.40;;;;;;5112138;28;20054;-79
2022/05/17 10:56:27;;;;;;;7.07;3.25;;;28.10;86.10;;;;;;5117698;28;20460;-78
2022/05/17 10:59:08;;;;;;;;;;;27.60;86.00;;;;;;5120787;28;20069;-80
2022/05/17 11:01:49;;;;;;;7.15;2.80;;;27.00;87.40;;;;;;5114585;28;20260;-80
2022/05/17 11:04:37;;;;;;;9.48;3.35;;;27.90;87.30;;;;;;5111754;28;20085;-80
2022/05/17 11:07:20;;;;;;;6.32;3.03;;;28.40;86.00;;;;;;5113936;28;20058;-78
2022/05/17 11:10:09;;;;;;;5.97;3.28;;;28.40;84.90;;;;;;5110835;28;20073;-80
2022/05/17 11:12:44;;;;;;;9.52;3.15;;;28.00;84.80;;;;;;5112467;28;20027;-80
2022/05/17 11:15:15;;;;;;;7.28;3.30;;;27.50;86.00;;;;;;5112004;28;20053;-78
2022/05/17 11:17:50;;;;;;;7.10;3.10;;;27.30;85.90;;;;;;5111160;28;20163;-78
2022/05/17 11:20:40;;;;;;;6.53;2.75;;;27.00;86.30;;;;;;5112428;28;20024;-80
2022/05/17 11:23:28;;;;;;;7.43;2.78;;;26.50;87.00;;;;;;5111201;28;20028;-78
2022/05/17 11:26:21;;;;;;;5.15;2.58;;;26.30;87.70;;;;;;5105201;28;20106;-78
2022/05/17 11:28:53;;;;;;;13.70;3.90;;;26.20;88.00;;;;;;5070118;28;20059;-78
2022/05/17 11:31:34;;;;;;;9.60;3.03;;;26.30;89.00;;;;;;5073788;28;20020;-79
2022/05/17 11:34:22;;;;;;;5.75;2.83;;;26.30;88.90;;;;;;5093835;28;20065;-78
2022/05/17 11:36:49;;;;;;;6.93;3.35;;;26.10;87.60;;;;;;5082225;28;20052;-78
2022/05/17 11:39:46;;;;;;;10.23;3.28;;;25.80;88.10;;;;;;5082275;28;20465;-76
2022/05/17 11:42:25;;;;;;;10.38;3.70;;;25.70;88.20;;;;;;5107151;28;20036;-80
2022/05/17 11:44:50;;;;;;;5.13;2.75;;;25.50;88.90;;;;;;5112117;28;20027;-81
2022/05/17 11:47:38;;;;;;;14.07;4.50;;;25.50;89.40;;;;;;5111176;28;20027;-81
2022/05/17 11:50:16;;;;;;;7.18;2.70;;;25.50;89.80;;;;;;5109685;28;20039;-80
2022/05/17 11:52:44;;;;;;;8.25;2.55;;;25.80;90.00;;;;;;5110595;28;20024;-79
2022/05/17 11:55:17;;;;;;;7.07;3.10;;;26.10;90.30;;;;;;5108625;28;20044;-79
2022/05/17 11:57:49;;;;;;;5.60;2.83;;;26.40;90.10;;;;;;5098464;28;20027;-78
2022/05/17 12:00:23;;;;;;;10.65;2.80;;;26.70;89.00;;;;;;5107919;28;20028;-81
2022/05/17 12:02:52;;;;;;;10.25;3.60;;;26.70;87.40;;;;;;5110548;28;20070;-80
2022/05/17 12:05:37;;;;;;;5.57;2.63;;;26.40;86.60;;;;;;5106222;28;20055;-80
2022/05/17 12:08:31;;;;;;;6.50;2.95;;;26.40;87.20;;;;;;5092610;28;20227;-80
2022/05/17 12:11:05;;;;;;;11.98;3.40;;;25.80;87.70;;;;;;5092850;28;20329;-79
2022/05/17 12:13:42;;;;;;;6.88;2.72;;;25.70;88.90;;;;;;5093825;28;20035;-80
2022/05/17 12:16:11;;;;;;;5.90;3.00;;;25.50;88.70;;;;;;5092511;28;20027;-78
2022/05/17 12:18:46;;;;;;;7.32;3.00;;;25.60;88.70;;;;;;5092001;28;20044;-79
2022/05/17 12:21:11;;;;;;;5.78;2.67;;;25.10;89.90;;;;;;5093944;28;20028;-80
2022/05/17 12:23:58;;;;;;;5.68;2.75;;;24.90;90.30;;;;;;5092590;28;20032;-80
2022/05/17 12:26:39;;;;;;;8.18;2.53;;;25.00;90.40;;;;;;5094116;28;20040;-79
2022/05/17 12:31:58;;;;;;;4.07;2.25;;;25.50;90.10;;;;;;5093011;28;20074;-80
2022/05/17 12:34:24;;;;;;;3.13;1.98;;;25.70;90.20;;;;;;5093311;28;20043;-77
2022/05/17 12:36:49;;;;;;;4.22;2.33;;;25.90;90.20;;;;;;5092897;28;20120;-78
2022/05/17 12:44:54;;;;;;;10.35;3.40;;;26.10;88.30;;;;;;5092611;28;20552;-78
2022/05/17 12:47:37;;;;;;;7.05;2.50;;;26.20;87.20;;;;;;5093534;28;20418;-79
2022/05/17 12:50:04;;;;;;;8.75;2.90;;;26.40;86.80;;;;;;5091163;28;20036;-79
2022/05/17 12:52:39;;;;;;;6.40;2.08;;;26.40;87.60;;;;;;5094876;28;20043;-79
2022/05/17 12:55:17;;;;;;;8.43;2.92;;;26.70;86.60;;;;;;5092410;28;20094;-80
2022/05/17 12:57:43;;;;;;;8.38;2.47;;;26.40;86.20;;;;;;5091914;28;20032;-71
2022/05/17 13:00:10;;;;;;;3.15;2.20;;;26.30;85.90;;;;;;5093025;28;20024;-81
2022/05/17 13:02:41;;;;;;;7.32;2.50;;;26.20;86.80;;;;;;5091930;28;20051;-80
2022/05/17 13:05:22;;;;;;;6.95;2.58;;;26.20;86.00;;;;;;5092448;28;20042;-80
2022/05/17 13:07:57;;;;;;;7.35;1.95;;;26.30;86.30;;;;;;5090183;28;20062;-79
2022/05/17 13:10:23;;;;;;;5.53;2.25;;;26.60;85.90;;;;;;5091674;28;20028;-81
2022/05/17 13:12:48;;;;;;;5.07;1.60;;;26.80;85.50;;;;;;5091719;28;20024;-78
2022/05/17 13:15:14;;;;;;;3.55;2.00;;;26.90;86.10;;;;;;5092557;28;20082;-81
2022/05/17 13:17:41;;;;;;;5.30;2.03;;;27.10;85.00;;;;;;5091784;28;20441;-80
2022/05/17 13:20:15;;;;;;;4.03;1.80;;;27.10;83.20;;;;;;5092170;28;20130;-81
2022/05/17 13:22:44;;;;;;;6.13;1.90;;;27.00;82.50;;;;;;5091251;28;20025;-80
2022/05/17 13:25:19;;;;;;;3.92;1.90;;;27.20;82.30;;;;;;5091746;28;20035;-80
2022/05/17 13:27:48;;;;;;;5.38;2.20;;;27.00;83.50;;;;;;5091950;28;20036;-74
2022/05/17 13:30:38;;;;;;;5.07;2.10;;;27.00;81.90;;;;;;5092468;28;20031;-79
2022/05/17 13:33:10;;;;;;;4.80;1.98;;;26.80;81.20;;;;;;5093348;28;20399;-79
2022/05/17 13:35:42;;;;;;;4.75;2.08;;;26.80;81.70;;;;;;5092058;28;20038;-80
2022/05/17 13:38:12;;;;;;;11.45;2.55;;;27.00;82.60;;;;;;5092738;28;20024;-79
2022/05/17 13:40:42;;;;;;;5.03;2.17;;;27.10;81.70;;;;;;5093271;28;20441;-78
2022/05/17 13:43:31;;;;;;;4.25;1.63;;;27.50;82.40;;;;;;5092792;28;20027;-80
2022/05/17 13:46:20;;;;;;;3.50;1.75;;;27.80;82.00;;;;;;5093221;28;20400;-81
2022/05/17 13:48:48;;;;;;;4.28;1.75;;;28.20;82.00;;;;;;5092578;28;20114;-71
2022/05/17 13:51:29;;;;;;;7.20;1.85;;;28.20;81.20;;;;;;5093110;28;20027;-79
2022/05/17 13:54:19;;;;;;;5.85;1.50;;;28.40;80.30;;;;;;5094390;28;20079;-80
2022/05/17 13:57:10;;;;;;;9.30;2.10;;;28.40;79.90;;;;;;5094352;28;20522;-80
2022/05/17 13:59:36;;;;;;;5.72;2.08;;;28.30;79.30;;;;;;5092469;28;20545;-80
2022/05/17 14:02:11;;;;;;;3.05;1.38;;;28.10;79.80;;;;;;5090056;28;20191;-80